sensor_id;sensor_type;location;lat;lon;timestamp;temperature;humidity
31687;DHT22;18285;51.330;4.946;2023-06-10T00:01:22;24.80;44.50
31687;DHT22;18285;51.330;4.946;2023-06-10T00:25:34;24.80;44.50
31687;DHT22;18285;51.330;4.946;2023-06-10T00:49:45;24.80;44.50
31687;DHT22;18285;51.330;4.946;2023-06-10T01:13:58;24.80;44.50
31687;DHT22;18285;51.330;4.946;2023-06-10T01:38:11;24.80;44.50
31687;DHT22;18285;51.330;4.946;2023-06-10T02:02:22;24.80;44.50
31687;DHT22;18285;51.330;4.946;2023-06-10T02:26:34;24.80;44.60
31687;DHT22;18285;51.330;4.946;2023-06-10T02:50:44;24.80;44.60
31687;DHT22;18285;51.330;4.946;2023-06-10T03:14:55;24.80;44.70
31687;DHT22;18285;51.330;4.946;2023-06-10T03:39:06;24.80;44.60
31687;DHT22;18285;51.330;4.946;2023-06-10T04:03:17;24.80;44.70
31687;DHT22;18285;51.330;4.946;2023-06-10T04:27:28;24.80;44.80
31687;DHT22;18285;51.330;4.946;2023-06-10T04:51:39;24.80;44.80
31687;DHT22;18285;51.330;4.946;2023-06-10T05:15:50;24.80;44.90
31687;DHT22;18285;51.330;4.946;2023-06-10T05:40:01;24.80;44.90
31687;DHT22;18285;51.330;4.946;2023-06-10T06:04:11;24.90;45.00
31687;DHT22;18285;51.330;4.946;2023-06-10T06:28:22;24.90;45.00
31687;DHT22;18285;51.330;4.946;2023-06-10T06:52:33;24.90;45.00
31687;DHT22;18285;51.330;4.946;2023-06-10T07:16:43;25.00;44.90
31687;DHT22;18285;51.330;4.946;2023-06-10T07:40:55;24.90;44.80
31687;DHT22;18285;51.330;4.946;2023-06-10T08:05:07;25.00;44.70
31687;DHT22;18285;51.330;4.946;2023-06-10T08:29:18;25.00;44.70
31687;DHT22;18285;51.330;4.946;2023-06-10T08:53:30;25.00;44.90
31687;DHT22;18285;51.330;4.946;2023-06-10T09:17:41;25.00;45.00
31687;DHT22;18285;51.330;4.946;2023-06-10T09:41:52;25.00;45.10
31687;DHT22;18285;51.330;4.946;2023-06-10T10:06:03;25.00;45.70
31687;DHT22;18285;51.330;4.946;2023-06-10T10:30:14;25.00;45.70
31687;DHT22;18285;51.330;4.946;2023-06-10T10:54:38;25.00;45.50
31687;DHT22;18285;51.330;4.946;2023-06-10T11:18:54;25.00;45.60
31687;DHT22;18285;51.330;4.946;2023-06-10T11:43:05;25.00;45.60
31687;DHT22;18285;51.330;4.946;2023-06-10T12:07:19;25.00;45.50
31687;DHT22;18285;51.330;4.946;2023-06-10T12:31:31;25.00;45.50
31687;DHT22;18285;51.330;4.946;2023-06-10T12:55:42;25.00;45.30
31687;DHT22;18285;51.330;4.946;2023-06-10T13:19:55;25.00;44.90
31687;DHT22;18285;51.330;4.946;2023-06-10T13:44:06;24.90;44.70
31687;DHT22;18285;51.330;4.946;2023-06-10T14:08:16;24.90;44.50
31687;DHT22;18285;51.330;4.946;2023-06-10T14:32:28;24.90;44.50
31687;DHT22;18285;51.330;4.946;2023-06-10T14:56:38;24.90;44.80
31687;DHT22;18285;51.330;4.946;2023-06-10T15:20:49;24.90;44.90
31687;DHT22;18285;51.330;4.946;2023-06-10T15:44:59;24.90;45.00
31687;DHT22;18285;51.330;4.946;2023-06-10T16:09:10;24.90;44.90
31687;DHT22;18285;51.330;4.946;2023-06-10T16:33:21;24.80;44.70
31687;DHT22;18285;51.330;4.946;2023-06-10T16:57:31;24.80;44.70
31687;DHT22;18285;51.330;4.946;2023-06-10T17:21:42;24.90;45.20
31687;DHT22;18285;51.330;4.946;2023-06-10T17:45:53;25.00;45.50
31687;DHT22;18285;51.330;4.946;2023-06-10T18:10:04;25.00;45.60
31687;DHT22;18285;51.330;4.946;2023-06-10T18:34:15;25.00;45.70
31687;DHT22;18285;51.330;4.946;2023-06-10T18:58:26;25.00;45.50
31687;DHT22;18285;51.330;4.946;2023-06-10T19:22:37;25.00;48.40
31687;DHT22;18285;51.330;4.946;2023-06-10T19:46:47;24.90;48.50
31687;DHT22;18285;51.330;4.946;2023-06-10T20:10:58;24.60;47.40
31687;DHT22;18285;51.330;4.946;2023-06-10T20:35:09;24.80;48.70
31687;DHT22;18285;51.330;4.946;2023-06-10T20:59:20;24.80;47.60
31687;DHT22;18285;51.330;4.946;2023-06-10T21:23:30;24.70;47.70
31687;DHT22;18285;51.330;4.946;2023-06-10T21:47:41;24.80;47.40
31687;DHT22;18285;51.330;4.946;2023-06-10T22:11:52;24.80;46.90
31687;DHT22;18285;51.330;4.946;2023-06-10T22:36:03;24.70;46.00
31687;DHT22;18285;51.330;4.946;2023-06-10T23:00:14;24.70;45.40
31687;DHT22;18285;51.330;4.946;2023-06-10T23:24:26;24.60;45.20
31687;DHT22;18285;51.330;4.946;2023-06-10T23:48:39;24.60;45.10
